sensor_id;sensor_type;location;lat;lon;timestamp;pressure;altitude;pressure_sealevel;temperature;humidity
54554;BME280;40450;55.848;-3.572;2022-12-18T00:01:36;99443.43;;;-1.78;86.16
54554;BME280;40450;55.848;-3.572;2022-12-18T00:04:06;99443.85;;;-2.45;86.72
54554;BME280;40450;55.848;-3.572;2022-12-18T00:06:35;99451.72;;;-3.40;88.60
54554;BME280;40450;55.848;-3.572;2022-12-18T00:09:05;99450.79;;;-4.18;90.57
54554;BME280;40450;55.848;-3.572;2022-12-18T00:11:36;99451.82;;;-4.16;91.01
54554;BME280;40450;55.848;-3.572;2022-12-18T00:14:06;99446.04;;;-3.78;90.32
54554;BME280;40450;55.848;-3.572;2022-12-18T00:16:37;99447.12;;;-3.59;89.57
54554;BME280;40450;55.848;-3.572;2022-12-18T00:19:08;99446.00;;;-3.48;89.30
54554;BME280;40450;55.848;-3.572;2022-12-18T00:21:37;99445.34;;;-3.15;89.03
54554;BME280;40450;55.848;-3.572;2022-12-18T00:24:08;99444.87;;;-3.15;89.18
54554;BME280;40450;55.848;-3.572;2022-12-18T00:26:39;99443.66;;;-2.96;88.90
54554;BME280;40450;55.848;-3.572;2022-12-18T00:29:12;99441.31;;;-3.03;88.67
54554;BME280;40450;55.848;-3.572;2022-12-18T00:31:40;99437.70;;;-2.79;88.44
54554;BME280;40450;55.848;-3.572;2022-12-18T00:34:11;99442.39;;;-2.04;86.94
54554;BME280;40450;55.848;-3.572;2022-12-18T00:36:41;99438.87;;;-1.21;85.35
54554;BME280;40450;55.848;-3.572;2022-12-18T00:39:11;99438.52;;;-1.31;83.85
54554;BME280;40450;55.848;-3.572;2022-12-18T00:41:41;99437.70;;;-0.38;84.00
54554;BME280;40450;55.848;-3.572;2022-12-18T00:44:14;99435.22;;;0.15;82.76
54554;BME280;40450;55.848;-3.572;2022-12-18T00:46:44;99432.83;;;1.30;82.91
54554;BME280;40450;55.848;-3.572;2022-12-18T00:49:13;99427.11;;;1.88;78.34
54554;BME280;40450;55.848;-3.572;2022-12-18T00:51:44;99430.60;;;1.86;78.02
54554;BME280;40450;55.848;-3.572;2022-12-18T00:54:15;99431.15;;;1.34;77.86
54554;BME280;40450;55.848;-3.572;2022-12-18T00:56:45;99425.51;;;1.24;77.95
54554;BME280;40450;55.848;-3.572;2022-12-18T00:59:15;99420.53;;;1.39;79.27
54554;BME280;40450;55.848;-3.572;2022-12-18T01:01:46;99424.23;;;2.12;79.02
54554;BME280;40450;55.848;-3.572;2022-12-18T01:04:16;99426.71;;;2.94;78.88
54554;BME280;40450;55.848;-3.572;2022-12-18T01:06:47;99428.36;;;3.39;77.63
54554;BME280;40450;55.848;-3.572;2022-12-18T01:09:17;99427.13;;;3.61;75.75
54554;BME280;40450;55.848;-3.572;2022-12-18T01:11:47;99429.90;;;3.98;74.42
54554;BME280;40450;55.848;-3.572;2022-12-18T01:14:18;99429.89;;;4.07;75.82
54554;BME280;40450;55.848;-3.572;2022-12-18T01:16:49;99438.28;;;4.17;73.58
54554;BME280;40450;55.848;-3.572;2022-12-18T01:19:19;99437.78;;;3.67;72.89
54554;BME280;40450;55.848;-3.572;2022-12-18T01:21:49;99436.84;;;3.78;72.17
54554;BME280;40450;55.848;-3.572;2022-12-18T01:24:20;99436.64;;;3.40;71.44
54554;BME280;40450;55.848;-3.572;2022-12-18T01:26:50;99425.54;;;3.28;73.71
54554;BME280;40450;55.848;-3.572;2022-12-18T01:29:21;99421.41;;;3.11;73.53
54554;BME280;40450;55.848;-3.572;2022-12-18T01:31:55;99421.57;;;2.96;74.68
54554;BME280;40450;55.848;-3.572;2022-12-18T01:34:22;99417.63;;;2.64;76.49
54554;BME280;40450;55.848;-3.572;2022-12-18T01:36:52;99412.71;;;2.33;76.79
54554;BME280;40450;55.848;-3.572;2022-12-18T01:39:23;99411.30;;;1.14;80.53
54554;BME280;40450;55.848;-3.572;2022-12-18T01:41:53;99412.34;;;0.95;81.39
54554;BME280;40450;55.848;-3.572;2022-12-18T01:46:55;99416.13;;;0.51;82.69
54554;BME280;40450;55.848;-3.572;2022-12-18T01:49:25;99413.72;;;0.49;83.03
54554;BME280;40450;55.848;-3.572;2022-12-18T01:51:55;99415.29;;;1.09;82.12
54554;BME280;40450;55.848;-3.572;2022-12-18T01:54:26;99415.09;;;2.06;80.17
54554;BME280;40450;55.848;-3.572;2022-12-18T01:56:56;99408.70;;;2.40;78.11
54554;BME280;40450;55.848;-3.572;2022-12-18T01:59:28;99412.42;;;3.46;76.53
54554;BME280;40450;55.848;-3.572;2022-12-18T02:01:57;99418.56;;;3.87;76.79
54554;BME280;40450;55.848;-3.572;2022-12-18T02:04:28;99423.53;;;4.51;77.60
54554;BME280;40450;55.848;-3.572;2022-12-18T02:07:05;99427.74;;;5.12;76.69
54554;BME280;40450;55.848;-3.572;2022-12-18T02:09:34;99431.25;;;5.53;75.55
54554;BME280;40450;55.848;-3.572;2022-12-18T02:12:04;99428.62;;;5.90;75.16
54554;BME280;40450;55.848;-3.572;2022-12-18T02:14:34;99430.13;;;6.10;74.05
54554;BME280;40450;55.848;-3.572;2022-12-18T02:17:03;99443.29;;;5.83;71.22
54554;BME280;40450;55.848;-3.572;2022-12-18T02:19:39;99447.82;;;5.19;71.55
54554;BME280;40450;55.848;-3.572;2022-12-18T02:22:09;99454.04;;;3.90;73.79
54554;BME280;40450;55.848;-3.572;2022-12-18T02:24:37;99457.98;;;3.88;74.86
54554;BME280;40450;55.848;-3.572;2022-12-18T02:27:04;99457.83;;;3.53;76.27
54554;BME280;40450;55.848;-3.572;2022-12-18T02:29:37;99455.84;;;2.71;78.34
54554;BME280;40450;55.848;-3.572;2022-12-18T02:32:14;99449.61;;;2.48;79.19
54554;BME280;40450;55.848;-3.572;2022-12-18T02:34:36;99451.67;;;1.80;80.74
54554;BME280;40450;55.848;-3.572;2022-12-18T02:37:06;99443.63;;;1.52;82.53
54554;BME280;40450;55.848;-3.572;2022-12-18T02:39:36;99447.62;;;1.69;81.93
54554;BME280;40450;55.848;-3.572;2022-12-18T02:42:04;99447.35;;;2.41;80.61
54554;BME280;40450;55.848;-3.572;2022-12-18T02:47:05;99440.37;;;2.40;80.96
54554;BME280;40450;55.848;-3.572;2022-12-18T02:49:43;99442.71;;;2.58;81.04
54554;BME280;40450;55.848;-3.572;2022-12-18T02:52:13;99443.23;;;3.32;80.30
54554;BME280;40450;55.848;-3.572;2022-12-18T02:54:48;99445.02;;;3.97;78.76
54554;BME280;40450;55.848;-3.572;2022-12-18T02:57:15;99437.19;;;4.19;77.22
54554;BME280;40450;55.848;-3.572;2022-12-18T02:59:42;99439.55;;;3.74;79.09
54554;BME280;40450;55.848;-3.572;2022-12-18T03:02:16;99431.57;;;4.06;79.57
54554;BME280;40450;55.848;-3.572;2022-12-18T03:04:42;99426.98;;;4.53;79.26
54554;BME280;40450;55.848;-3.572;2022-12-18T03:07:11;99427.53;;;5.46;78.82
54554;BME280;40450;55.848;-3.572;2022-12-18T03:09:42;99423.56;;;5.30;77.59
54554;BME280;40450;55.848;-3.572;2022-12-18T03:12:14;99424.45;;;5.90;76.80
54554;BME280;40450;55.848;-3.572;2022-12-18T03:14:42;99424.76;;;3.37;76.30
54554;BME280;40450;55.848;-3.572;2022-12-18T03:17:14;99414.11;;;4.55;75.53
54554;BME280;40450;55.848;-3.572;2022-12-18T03:19:43;99414.49;;;5.05;74.08
54554;BME280;40450;55.848;-3.572;2022-12-18T03:22:12;99417.29;;;2.89;78.45
54554;BME280;40450;55.848;-3.572;2022-12-18T03:24:42;99411.30;;;2.77;79.10
54554;BME280;40450;55.848;-3.572;2022-12-18T03:27:15;99409.10;;;0.34;81.99
54554;BME280;40450;55.848;-3.572;2022-12-18T03:29:46;99400.53;;;1.78;79.73
54554;BME280;40450;55.848;-3.572;2022-12-18T03:32:18;99389.64;;;1.02;81.41
54554;BME280;40450;55.848;-3.572;2022-12-18T03:34:47;99385.52;;;2.43;80.15
54554;BME280;40450;55.848;-3.572;2022-12-18T03:37:15;99386.13;;;2.27;80.72
54554;BME280;40450;55.848;-3.572;2022-12-18T03:39:45;99386.33;;;3.49;78.58
54554;BME280;40450;55.848;-3.572;2022-12-18T03:42:20;99385.23;;;3.63;77.12
54554;BME280;40450;55.848;-3.572;2022-12-18T03:44:52;99387.63;;;4.64;77.18
54554;BME280;40450;55.848;-3.572;2022-12-18T03:47:21;99385.16;;;5.31;76.22
54554;BME280;40450;55.848;-3.572;2022-12-18T03:49:50;99387.76;;;5.56;74.90
54554;BME280;40450;55.848;-3.572;2022-12-18T03:52:20;99386.15;;;5.76;73.86
54554;BME280;40450;55.848;-3.572;2022-12-18T03:54:48;99386.73;;;5.55;72.12
54554;BME280;40450;55.848;-3.572;2022-12-18T03:57:20;99379.41;;;4.82;73.98
54554;BME280;40450;55.848;-3.572;2022-12-18T03:59:51;99376.73;;;3.02;79.87
54554;BME280;40450;55.848;-3.572;2022-12-18T04:02:19;99370.61;;;1.13;86.21
54554;BME280;40450;55.848;-3.572;2022-12-18T04:04:51;99365.60;;;-0.11;90.40
54554;BME280;40450;55.848;-3.572;2022-12-18T04:07:20;99362.46;;;-0.84;92.88
54554;BME280;40450;55.848;-3.572;2022-12-18T04:09:51;99364.01;;;-1.13;94.57
54554;BME280;40450;55.848;-3.572;2022-12-18T04:12:20;99362.51;;;-0.80;94.43
54554;BME280;40450;55.848;-3.572;2022-12-18T04:14:50;99353.56;;;-1.85;96.75
54554;BME280;40450;55.848;-3.572;2022-12-18T04:17:21;99345.91;;;-1.93;97.46
54554;BME280;40450;55.848;-3.572;2022-12-18T04:19:51;99345.43;;;-1.89;97.42
54554;BME280;40450;55.848;-3.572;2022-12-18T04:22:21;99340.02;;;-0.99;96.37
54554;BME280;40450;55.848;-3.572;2022-12-18T04:24:51;99334.94;;;-1.18;96.21
54554;BME280;40450;55.848;-3.572;2022-12-18T04:27:22;99325.89;;;-1.15;96.26
54554;BME280;40450;55.848;-3.572;2022-12-18T04:29:52;99320.42;;;-1.26;96.15
54554;BME280;40450;55.848;-3.572;2022-12-18T04:32:23;99315.34;;;-0.52;94.81
54554;BME280;40450;55.848;-3.572;2022-12-18T04:34:53;99312.17;;;-0.91;95.49
54554;BME280;40450;55.848;-3.572;2022-12-18T04:37:24;99315.06;;;-0.80;94.52
54554;BME280;40450;55.848;-3.572;2022-12-18T04:39:54;99318.67;;;-0.68;94.00
54554;BME280;40450;55.848;-3.572;2022-12-18T04:42:24;99319.48;;;-0.81;93.95
54554;BME280;40450;55.848;-3.572;2022-12-18T04:44:55;99321.69;;;-1.74;95.71
54554;BME280;40450;55.848;-3.572;2022-12-18T04:47:25;99323.18;;;-2.25;96.45
54554;BME280;40450;55.848;-3.572;2022-12-18T04:49:55;99321.34;;;-2.33;97.37
54554;BME280;40450;55.848;-3.572;2022-12-18T04:52:26;99320.44;;;-1.95;96.89
54554;BME280;40450;55.848;-3.572;2022-12-18T04:54:56;99314.35;;;-1.75;96.63
54554;BME280;40450;55.848;-3.572;2022-12-18T04:57:26;99305.21;;;-1.05;95.40
54554;BME280;40450;55.848;-3.572;2022-12-18T04:59:57;99300.09;;;0.05;92.88
54554;BME280;40450;55.848;-3.572;2022-12-18T05:02:27;99295.78;;;1.09;91.07
54554;BME280;40450;55.848;-3.572;2022-12-18T05:04:57;99301.03;;;1.96;90.03
54554;BME280;40450;55.848;-3.572;2022-12-18T05:07:28;99291.39;;;2.96;90.01
54554;BME280;40450;55.848;-3.572;2022-12-18T05:09:58;99291.58;;;3.76;90.01
54554;BME280;40450;55.848;-3.572;2022-12-18T05:12:28;99302.04;;;5.16;85.07
54554;BME280;40450;55.848;-3.572;2022-12-18T05:14:59;99293.53;;;5.83;84.80
54554;BME280;40450;55.848;-3.572;2022-12-18T05:17:29;99286.57;;;5.95;83.45
54554;BME280;40450;55.848;-3.572;2022-12-18T05:20:00;99285.10;;;5.91;79.46
54554;BME280;40450;55.848;-3.572;2022-12-18T05:22:30;99283.55;;;5.92;81.66
54554;BME280;40450;55.848;-3.572;2022-12-18T05:25:00;99268.31;;;5.94;81.94
54554;BME280;40450;55.848;-3.572;2022-12-18T05:27:30;99257.23;;;6.03;81.51
54554;BME280;40450;55.848;-3.572;2022-12-18T05:30:01;99248.70;;;5.87;76.87
54554;BME280;40450;55.848;-3.572;2022-12-18T05:32:31;99252.77;;;0.67;86.82
54554;BME280;40450;55.848;-3.572;2022-12-18T05:35:02;99241.94;;;3.64;82.64
54554;BME280;40450;55.848;-3.572;2022-12-18T05:37:32;99236.73;;;5.19;80.85
54554;BME280;40450;55.848;-3.572;2022-12-18T05:40:03;99246.26;;;5.95;77.04
54554;BME280;40450;55.848;-3.572;2022-12-18T05:42:33;99258.85;;;6.68;78.84
54554;BME280;40450;55.848;-3.572;2022-12-18T05:45:04;99256.08;;;6.85;77.14
54554;BME280;40450;55.848;-3.572;2022-12-18T05:47:34;99249.04;;;6.77;77.69
54554;BME280;40450;55.848;-3.572;2022-12-18T05:50:06;99239.46;;;7.14;77.06
54554;BME280;40450;55.848;-3.572;2022-12-18T05:52:35;99232.85;;;6.64;72.89
54554;BME280;40450;55.848;-3.572;2022-12-18T05:55:06;99234.01;;;6.95;76.19
54554;BME280;40450;55.848;-3.572;2022-12-18T05:57:35;99238.64;;;6.85;73.75
54554;BME280;40450;55.848;-3.572;2022-12-18T06:00:07;99242.13;;;7.30;73.35
54554;BME280;40450;55.848;-3.572;2022-12-18T06:02:36;99251.30;;;6.72;73.11
54554;BME280;40450;55.848;-3.572;2022-12-18T06:05:07;99236.55;;;6.52;74.48
54554;BME280;40450;55.848;-3.572;2022-12-18T06:07:37;99233.05;;;4.95;76.68
54554;BME280;40450;55.848;-3.572;2022-12-18T06:10:08;99246.40;;;6.56;74.57
54554;BME280;40450;55.848;-3.572;2022-12-18T06:12:38;99260.40;;;4.21;76.51
54554;BME280;40450;55.848;-3.572;2022-12-18T06:15:08;99259.24;;;6.65;73.46
54554;BME280;40450;55.848;-3.572;2022-12-18T06:17:38;99263.72;;;7.00;74.25
54554;BME280;40450;55.848;-3.572;2022-12-18T06:20:09;99263.87;;;6.40;71.87
54554;BME280;40450;55.848;-3.572;2022-12-18T06:22:39;99254.24;;;4.42;75.78
54554;BME280;40450;55.848;-3.572;2022-12-18T06:25:10;99251.85;;;4.34;75.80
54554;BME280;40450;55.848;-3.572;2022-12-18T06:27:40;99242.48;;;2.57;80.39
54554;BME280;40450;55.848;-3.572;2022-12-18T06:30:11;99241.29;;;5.78;75.70
54554;BME280;40450;55.848;-3.572;2022-12-18T06:32:41;99239.98;;;6.32;74.50
54554;BME280;40450;55.848;-3.572;2022-12-18T06:35:11;99234.58;;;6.44;74.38
54554;BME280;40450;55.848;-3.572;2022-12-18T06:37:42;99236.81;;;7.16;73.63
54554;BME280;40450;55.848;-3.572;2022-12-18T06:40:13;99222.72;;;5.69;73.88
54554;BME280;40450;55.848;-3.572;2022-12-18T06:42:43;99219.06;;;6.03;73.25
54554;BME280;40450;55.848;-3.572;2022-12-18T06:45:13;99214.81;;;4.86;75.26
54554;BME280;40450;55.848;-3.572;2022-12-18T06:47:44;99212.18;;;4.95;75.55
54554;BME280;40450;55.848;-3.572;2022-12-18T06:50:14;99214.01;;;5.40;74.76
54554;BME280;40450;55.848;-3.572;2022-12-18T06:52:44;99206.76;;;5.56;74.85
54554;BME280;40450;55.848;-3.572;2022-12-18T06:55:14;99204.99;;;3.64;79.41
54554;BME280;40450;55.848;-3.572;2022-12-18T06:57:52;99209.75;;;3.14;79.68
54554;BME280;40450;55.848;-3.572;2022-12-18T07:00:17;99210.66;;;4.52;77.61
54554;BME280;40450;55.848;-3.572;2022-12-18T07:02:46;99209.93;;;4.23;78.42
54554;BME280;40450;55.848;-3.572;2022-12-18T07:05:16;99213.37;;;4.64;77.30
54554;BME280;40450;55.848;-3.572;2022-12-18T07:07:46;99217.13;;;3.82;78.52
54554;BME280;40450;55.848;-3.572;2022-12-18T07:10:17;99211.88;;;3.86;78.49
54554;BME280;40450;55.848;-3.572;2022-12-18T07:12:47;99209.48;;;4.18;78.64
54554;BME280;40450;55.848;-3.572;2022-12-18T07:15:18;99204.24;;;4.12;78.04
54554;BME280;40450;55.848;-3.572;2022-12-18T07:17:48;99206.15;;;4.19;78.12
54554;BME280;40450;55.848;-3.572;2022-12-18T07:20:18;99204.26;;;4.26;77.75
54554;BME280;40450;55.848;-3.572;2022-12-18T07:22:49;99204.97;;;3.61;79.61
54554;BME280;40450;55.848;-3.572;2022-12-18T07:25:19;99212.40;;;1.51;84.31
54554;BME280;40450;55.848;-3.572;2022-12-18T07:27:49;99195.11;;;2.69;81.67
54554;BME280;40450;55.848;-3.572;2022-12-18T07:30:21;99180.56;;;3.87;79.37
54554;BME280;40450;55.848;-3.572;2022-12-18T07:32:50;99165.66;;;3.26;79.96
54554;BME280;40450;55.848;-3.572;2022-12-18T07:35:21;99155.47;;;2.90;81.14
54554;BME280;40450;55.848;-3.572;2022-12-18T07:37:51;99138.89;;;2.82;81.50
54554;BME280;40450;55.848;-3.572;2022-12-18T07:40:21;99124.11;;;4.16;79.75
54554;BME280;40450;55.848;-3.572;2022-12-18T07:42:52;99123.28;;;3.55;79.40
54554;BME280;40450;55.848;-3.572;2022-12-18T07:45:22;99129.86;;;4.05;79.46
54554;BME280;40450;55.848;-3.572;2022-12-18T07:47:52;99124.60;;;4.80;78.36
54554;BME280;40450;55.848;-3.572;2022-12-18T07:50:22;99128.95;;;3.58;79.03
54554;BME280;40450;55.848;-3.572;2022-12-18T07:52:52;99128.99;;;2.41;81.29
54554;BME280;40450;55.848;-3.572;2022-12-18T07:55:23;99123.09;;;2.72;83.03
54554;BME280;40450;55.848;-3.572;2022-12-18T07:57:53;99129.48;;;4.65;79.87
54554;BME280;40450;55.848;-3.572;2022-12-18T08:00:24;99128.99;;;3.99;78.13
54554;BME280;40450;55.848;-3.572;2022-12-18T08:02:54;99127.01;;;5.28;77.84
54554;BME280;40450;55.848;-3.572;2022-12-18T08:05:25;99134.18;;;4.21;75.60
54554;BME280;40450;55.848;-3.572;2022-12-18T08:07:56;99130.94;;;3.41;77.95
54554;BME280;40450;55.848;-3.572;2022-12-18T08:10:26;99121.95;;;4.39;79.18
54554;BME280;40450;55.848;-3.572;2022-12-18T08:12:56;99116.27;;;4.34;77.78
54554;BME280;40450;55.848;-3.572;2022-12-18T08:15:27;99120.24;;;1.84;79.77
54554;BME280;40450;55.848;-3.572;2022-12-18T08:17:58;99123.98;;;0.02;85.15
54554;BME280;40450;55.848;-3.572;2022-12-18T08:20:28;99124.54;;;1.25;81.44
54554;BME280;40450;55.848;-3.572;2022-12-18T08:22:59;99117.13;;;3.59;78.36
54554;BME280;40450;55.848;-3.572;2022-12-18T08:25:29;99121.76;;;0.48;84.66
54554;BME280;40450;55.848;-3.572;2022-12-18T08:28:00;99118.13;;;3.37;77.37
54554;BME280;40450;55.848;-3.572;2022-12-18T08:30:30;99114.48;;;3.70;77.49
54554;BME280;40450;55.848;-3.572;2022-12-18T08:33:01;99113.81;;;5.18;76.67
54554;BME280;40450;55.848;-3.572;2022-12-18T08:35:35;99118.07;;;3.63;72.19
54554;BME280;40450;55.848;-3.572;2022-12-18T08:38:02;99110.80;;;4.97;71.95
54554;BME280;40450;55.848;-3.572;2022-12-18T08:40:32;99100.51;;;5.18;68.92
54554;BME280;40450;55.848;-3.572;2022-12-18T08:43:03;99101.49;;;5.32;67.65
54554;BME280;40450;55.848;-3.572;2022-12-18T08:45:34;99095.32;;;4.13;70.20
54554;BME280;40450;55.848;-3.572;2022-12-18T08:48:04;99086.48;;;4.25;70.26
54554;BME280;40450;55.848;-3.572;2022-12-18T08:50:34;99069.94;;;4.37;70.22
54554;BME280;40450;55.848;-3.572;2022-12-18T08:53:04;99066.91;;;4.83;69.63
54554;BME280;40450;55.848;-3.572;2022-12-18T08:55:35;99059.58;;;4.74;68.51
54554;BME280;40450;55.848;-3.572;2022-12-18T08:58:05;99062.10;;;4.24;68.06
54554;BME280;40450;55.848;-3.572;2022-12-18T09:00:35;99060.52;;;3.69;70.36
54554;BME280;40450;55.848;-3.572;2022-12-18T09:03:11;99064.11;;;4.22;69.00
54554;BME280;40450;55.848;-3.572;2022-12-18T09:05:37;99065.33;;;4.14;69.78
54554;BME280;40450;55.848;-3.572;2022-12-18T09:08:07;99054.71;;;4.06;69.27
54554;BME280;40450;55.848;-3.572;2022-12-18T09:10:42;99043.35;;;4.35;69.55
54554;BME280;40450;55.848;-3.572;2022-12-18T09:13:08;99039.68;;;4.27;68.53
54554;BME280;40450;55.848;-3.572;2022-12-18T09:15:41;99031.99;;;3.81;68.71
54554;BME280;40450;55.848;-3.572;2022-12-18T09:18:09;99026.46;;;4.55;68.98
54554;BME280;40450;55.848;-3.572;2022-12-18T09:20:39;99020.48;;;4.80;68.22
54554;BME280;40450;55.848;-3.572;2022-12-18T09:23:10;99010.89;;;4.56;65.87
54554;BME280;40450;55.848;-3.572;2022-12-18T09:25:40;99011.13;;;4.71;65.25
54554;BME280;40450;55.848;-3.572;2022-12-18T09:28:15;99001.86;;;4.75;65.81
54554;BME280;40450;55.848;-3.572;2022-12-18T09:30:43;98994.78;;;5.46;64.21
54554;BME280;40450;55.848;-3.572;2022-12-18T09:33:11;98979.77;;;4.43;66.78
54554;BME280;40450;55.848;-3.572;2022-12-18T09:35:43;98973.06;;;5.74;62.39
54554;BME280;40450;55.848;-3.572;2022-12-18T09:38:16;98964.98;;;5.64;63.01
54554;BME280;40450;55.848;-3.572;2022-12-18T09:40:44;98968.42;;;1.17;71.60
54554;BME280;40450;55.848;-3.572;2022-12-18T09:43:17;98961.35;;;2.18;71.49
54554;BME280;40450;55.848;-3.572;2022-12-18T09:45:46;98955.63;;;2.06;69.71
54554;BME280;40450;55.848;-3.572;2022-12-18T09:48:18;98956.01;;;3.31;67.72
54554;BME280;40450;55.848;-3.572;2022-12-18T09:50:45;98957.11;;;5.37;66.55
54554;BME280;40450;55.848;-3.572;2022-12-18T09:53:19;98949.88;;;4.22;65.00
54554;BME280;40450;55.848;-3.572;2022-12-18T09:55:47;98946.29;;;4.83;60.40
54554;BME280;40450;55.848;-3.572;2022-12-18T09:58:21;98948.20;;;4.63;60.99
54554;BME280;40450;55.848;-3.572;2022-12-18T10:00:46;98942.88;;;3.22;63.09
54554;BME280;40450;55.848;-3.572;2022-12-18T10:03:16;98935.95;;;3.89;61.90
54554;BME280;40450;55.848;-3.572;2022-12-18T10:05:55;98927.81;;;3.78;59.92
54554;BME280;40450;55.848;-3.572;2022-12-18T10:08:23;98931.77;;;4.00;59.62
54554;BME280;40450;55.848;-3.572;2022-12-18T10:10:51;98932.27;;;3.50;58.92
54554;BME280;40450;55.848;-3.572;2022-12-18T10:13:23;98919.21;;;3.01;59.11
54554;BME280;40450;55.848;-3.572;2022-12-18T10:15:59;98913.24;;;2.65;59.08
54554;BME280;40450;55.848;-3.572;2022-12-18T10:18:28;98897.47;;;3.09;59.46
54554;BME280;40450;55.848;-3.572;2022-12-18T10:20:52;98885.33;;;3.52;58.80
54554;BME280;40450;55.848;-3.572;2022-12-18T10:23:25;98884.15;;;4.11;56.84
54554;BME280;40450;55.848;-3.572;2022-12-18T10:25:55;98876.56;;;4.10;55.80
54554;BME280;40450;55.848;-3.572;2022-12-18T10:28:22;98873.49;;;3.26;57.06
54554;BME280;40450;55.848;-3.572;2022-12-18T10:30:51;98878.57;;;3.44;58.49
54554;BME280;40450;55.848;-3.572;2022-12-18T10:33:23;98873.68;;;3.40;57.66
54554;BME280;40450;55.848;-3.572;2022-12-18T10:35:53;98884.81;;;4.66;58.65
54554;BME280;40450;55.848;-3.572;2022-12-18T10:38:25;98884.97;;;5.25;57.19
54554;BME280;40450;55.848;-3.572;2022-12-18T10:40:55;98887.90;;;4.44;57.03
54554;BME280;40450;55.848;-3.572;2022-12-18T10:43:26;98883.08;;;4.00;57.45
54554;BME280;40450;55.848;-3.572;2022-12-18T10:46:04;98871.17;;;3.90;58.37
54554;BME280;40450;55.848;-3.572;2022-12-18T10:48:25;98857.06;;;3.03;59.36
54554;BME280;40450;55.848;-3.572;2022-12-18T10:50:55;98859.91;;;3.19;60.10
54554;BME280;40450;55.848;-3.572;2022-12-18T10:53:28;98839.97;;;2.87;60.63
54554;BME280;40450;55.848;-3.572;2022-12-18T10:55:58;98838.57;;;3.09;61.11
54554;BME280;40450;55.848;-3.572;2022-12-18T10:58:28;98829.33;;;3.04;58.79
54554;BME280;40450;55.848;-3.572;2022-12-18T11:01:03;98828.41;;;2.99;59.55
54554;BME280;40450;55.848;-3.572;2022-12-18T11:03:31;98818.65;;;2.49;60.32
54554;BME280;40450;55.848;-3.572;2022-12-18T11:06:04;98807.69;;;2.60;60.48
54554;BME280;40450;55.848;-3.572;2022-12-18T11:08:28;98800.97;;;2.07;61.01
54554;BME280;40450;55.848;-3.572;2022-12-18T11:10:59;98802.99;;;1.96;62.91
54554;BME280;40450;55.848;-3.572;2022-12-18T11:13:30;98801.55;;;1.88;62.80
54554;BME280;40450;55.848;-3.572;2022-12-18T11:16:00;98797.57;;;1.99;62.50
54554;BME280;40450;55.848;-3.572;2022-12-18T11:18:32;98793.85;;;2.56;61.77
54554;BME280;40450;55.848;-3.572;2022-12-18T11:21:06;98789.50;;;1.49;63.04
54554;BME280;40450;55.848;-3.572;2022-12-18T11:23:31;98786.49;;;2.14;61.83
54554;BME280;40450;55.848;-3.572;2022-12-18T11:26:04;98783.59;;;2.27;61.72
54554;BME280;40450;55.848;-3.572;2022-12-18T11:28:37;98786.12;;;2.83;61.48
54554;BME280;40450;55.848;-3.572;2022-12-18T11:31:11;98784.35;;;2.82;60.91
54554;BME280;40450;55.848;-3.572;2022-12-18T11:33:34;98777.87;;;3.72;59.67
54554;BME280;40450;55.848;-3.572;2022-12-18T11:36:05;98773.75;;;3.92;59.38
54554;BME280;40450;55.848;-3.572;2022-12-18T11:38:35;98773.31;;;3.57;59.07
54554;BME280;40450;55.848;-3.572;2022-12-18T11:41:10;98773.57;;;2.54;60.22
54554;BME280;40450;55.848;-3.572;2022-12-18T11:43:39;98768.70;;;3.56;57.79
54554;BME280;40450;55.848;-3.572;2022-12-18T11:46:07;98757.35;;;3.93;56.59
54554;BME280;40450;55.848;-3.572;2022-12-18T11:48:38;98750.88;;;5.00;57.82
54554;BME280;40450;55.848;-3.572;2022-12-18T11:51:11;98744.69;;;4.78;56.24
54554;BME280;40450;55.848;-3.572;2022-12-18T11:53:36;98741.24;;;5.04;54.33
54554;BME280;40450;55.848;-3.572;2022-12-18T11:56:25;98729.02;;;4.56;55.10
54554;BME280;40450;55.848;-3.572;2022-12-18T11:58:45;98716.33;;;4.69;54.34
54554;BME280;40450;55.848;-3.572;2022-12-18T12:01:16;98702.75;;;5.62;54.07
54554;BME280;40450;55.848;-3.572;2022-12-18T12:03:50;98697.90;;;5.79;52.14
54554;BME280;40450;55.848;-3.572;2022-12-18T12:06:14;98696.19;;;6.01;51.33
54554;BME280;40450;55.848;-3.572;2022-12-18T12:08:49;98696.55;;;5.84;52.62
54554;BME280;40450;55.848;-3.572;2022-12-18T12:11:16;98679.94;;;6.09;53.21
54554;BME280;40450;55.848;-3.572;2022-12-18T12:13:48;98674.11;;;6.06;51.03
54554;BME280;40450;55.848;-3.572;2022-12-18T12:16:16;98676.23;;;7.08;48.41
54554;BME280;40450;55.848;-3.572;2022-12-18T12:18:51;98664.89;;;7.11;51.44
54554;BME280;40450;55.848;-3.572;2022-12-18T12:21:17;98652.15;;;7.18;51.69
54554;BME280;40450;55.848;-3.572;2022-12-18T12:23:47;98646.83;;;7.93;51.15
54554;BME280;40450;55.848;-3.572;2022-12-18T12:26:16;98644.60;;;8.06;49.03
54554;BME280;40450;55.848;-3.572;2022-12-18T12:28:52;98648.31;;;7.24;49.47
54554;BME280;40450;55.848;-3.572;2022-12-18T12:31:20;98637.35;;;7.36;48.93
54554;BME280;40450;55.848;-3.572;2022-12-18T12:33:48;98629.65;;;6.53;49.28
54554;BME280;40450;55.848;-3.572;2022-12-18T12:36:21;98625.68;;;7.52;49.09
54554;BME280;40450;55.848;-3.572;2022-12-18T12:38:47;98623.15;;;7.06;49.18
54554;BME280;40450;55.848;-3.572;2022-12-18T12:41:18;98612.96;;;6.19;49.40
54554;BME280;40450;55.848;-3.572;2022-12-18T12:43:47;98610.33;;;6.13;48.84
54554;BME280;40450;55.848;-3.572;2022-12-18T12:46:18;98609.14;;;7.09;49.99
54554;BME280;40450;55.848;-3.572;2022-12-18T12:48:47;98612.30;;;7.21;49.20
54554;BME280;40450;55.848;-3.572;2022-12-18T12:51:20;98611.70;;;4.89;54.52
54554;BME280;40450;55.848;-3.572;2022-12-18T12:53:47;98601.94;;;6.97;49.70
54554;BME280;40450;55.848;-3.572;2022-12-18T12:56:18;98597.22;;;7.09;50.40
54554;BME280;40450;55.848;-3.572;2022-12-18T12:58:55;98586.58;;;6.03;50.92
54554;BME280;40450;55.848;-3.572;2022-12-18T13:01:25;98588.68;;;4.80;52.81
54554;BME280;40450;55.848;-3.572;2022-12-18T13:03:55;98583.41;;;5.56;52.89
54554;BME280;40450;55.848;-3.572;2022-12-18T13:06:27;98571.67;;;6.09;52.02
54554;BME280;40450;55.848;-3.572;2022-12-18T13:08:55;98574.85;;;6.36;52.30
54554;BME280;40450;55.848;-3.572;2022-12-18T13:11:28;98571.42;;;6.04;52.83
54554;BME280;40450;55.848;-3.572;2022-12-18T13:13:51;98560.37;;;4.60;57.40
54554;BME280;40450;55.848;-3.572;2022-12-18T13:16:24;98557.82;;;5.62;54.46
54554;BME280;40450;55.848;-3.572;2022-12-18T13:18:51;98552.76;;;6.72;53.05
54554;BME280;40450;55.848;-3.572;2022-12-18T13:21:24;98550.78;;;6.62;52.82